Terminal Aerodrome Forecast
Issued by NWS

Home | Current Version | Previous Version | Text Only | Print | Product List | Glossary On
Versions: 1 2 3 4 5 6 7 8 9 10 11 12 13 14 15 16 17
000
FTUS41 KBOX 202035 AAA
TAFBAF
TAF AMD
KBAF 202035Z 2021/2118 19005KT P6SM SKC
     FM210400 00000KT P6SM SKC
     FM211700 19006KT P6SM FEW130=

USA.gov is the U.S. government's official web portal to all federal, state and local government web resources and services.